Metsaborg — PBFL — position and weather

sailwx.info

Track history (hours):
 
Tides and Currents Weather Stations Pressure Air Temp Water Temp Dewpoint Dewpoint Depression Visibility Wind Speed Wind Dir Waves Ship Positions

Metsaborg

Last reported at 2014-Dec-10 08:14 UTC. Time now 2014-Dec-18 14:29 UTC.
Position N 55°06' E 019°11'.
Warning: this ship's position is 8 days out of date.

Length 134 m; draft 4.8 m.

Type: Cargo ship. MMSI: 246270000.

Date/timePositionNaut miles runAvg speedWind from/ knotsBaromVisibWave heightAir tempDewpointWater temp
2014-Dec-10 08:14N 55°06' E 019°11'1 1.9
2014-Dec-10 07:30N 55°04' E 019°11'2 1.8
2014-Dec-10 06:33N 55°03' E 019°11'2 1.8
2014-Dec-10 05:33N 55°01' E 019°11'2 1.7
2014-Dec-10 04:33N 54°59' E 019°11'2 1.5
2014-Dec-10 03:33N 54°58' E 019°11'4 3.7
2014-Dec-10 02:33N 54°54' E 019°14'8 8.4
2014-Dec-10 01:33N 54°48' E 019°24'9 8.9
2014-Dec-10 00:33N 54°44' E 019°38'1110.7
2014-Dec-09 23:33N 54°38' E 019°53'  
2014-Dec-05 03:07N 54°42' E 020°27'0 0.0
2014-Dec-05 02:31N 54°42' E 020°27'0 0.0
2014-Dec-05 00:30N 54°42' E 020°27'  
2014-Dec-02 00:32N 54°42' E 020°27'0 0.0
2014-Dec-01 11:26N 54°42' E 020°27'0 0.0
2014-Nov-30 14:09N 54°42' E 020°27'0 0.0
2014-Nov-30 13:21N 54°42' E 020°27'0 0.0
2014-Nov-30 12:17N 54°42' E 020°27'0 0.0
2014-Nov-30 11:33N 54°42' E 020°27'0 0.0
2014-Nov-30 10:32N 54°42' E 020°27'0 0.0
2014-Nov-30 09:29N 54°42' E 020°27'0 0.0
2014-Nov-30 08:22N 54°42' E 020°27'  
Track history (hours):
 
Tides and Currents Weather Stations Pressure Air Temp Water Temp Dewpoint Dewpoint Depression Visibility Wind Speed Wind Dir Waves Ship Positions

Metsaborg

Last reported at 2014-Dec-10 08:14 UTC. Time now 2014-Dec-18 14:29 UTC.
Position N 55°06' E 019°11'.
Warning: this ship's position is 8 days out of date.

Length 134 m; draft 4.8 m.

Type: Cargo ship. MMSI: 246270000.

Date/timePositionNaut miles runAvg speedWind from/ knotsBaromVisibWave heightAir tempDewpointWater temp
2014-Dec-10 08:14N 55°06' E 019°11'1 1.9
2014-Dec-10 07:30N 55°04' E 019°11'2 1.8
2014-Dec-10 06:33N 55°03' E 019°11'2 1.8
2014-Dec-10 05:33N 55°01' E 019°11'2 1.7
2014-Dec-10 04:33N 54°59' E 019°11'2 1.5
2014-Dec-10 03:33N 54°58' E 019°11'4 3.7
2014-Dec-10 02:33N 54°54' E 019°14'8 8.4
2014-Dec-10 01:33N 54°48' E 019°24'9 8.9
2014-Dec-10 00:33N 54°44' E 019°38'1110.7
2014-Dec-09 23:33N 54°38' E 019°53'  
2014-Dec-05 03:07N 54°42' E 020°27'0 0.0
2014-Dec-05 02:31N 54°42' E 020°27'0 0.0
2014-Dec-05 00:30N 54°42' E 020°27'  
2014-Dec-02 00:32N 54°42' E 020°27'0 0.0
2014-Dec-01 11:26N 54°42' E 020°27'0 0.0
2014-Nov-30 14:09N 54°42' E 020°27'0 0.0
2014-Nov-30 13:21N 54°42' E 020°27'0 0.0
2014-Nov-30 12:17N 54°42' E 020°27'0 0.0
2014-Nov-30 11:33N 54°42' E 020°27'0 0.0
2014-Nov-30 10:32N 54°42' E 020°27'0 0.0
2014-Nov-30 09:29N 54°42' E 020°27'0 0.0
2014-Nov-30 08:22N 54°42' E 020°27'  

Dump ship's entire track history